Cheshire, Oregon
Current Conditions -  °F | °C
As of 2:41 AM on Saturday 22 Nov 2014 (Local Time) from KEUG Reporting Station
Broken Clouds Broken Clouds  
Wind Chill: 50°   Ceiling: 3100
Heat Index: 50°   Visibility: 10mi
Dew Point: 48°   Wind: 5mph
Humidity: 93%   Direction: 230°SW
Pressure: 29.78"   Gusts: NA
Location:  44.19°N, 123.29°W
Report Text: KEUG 221041Z AUTO 23004KT 10SM FEW017 SCT024 BKN031 10/09 A2978 RMK AO2 T01000089
Loading
Personal Weather Stations






























Interactive Weather Map New forecast layout! Learn more

10-Day Weather Forecast

Advertisements
Track Severe Weather on mobile